sensor_id;sensor_type;location;lat;lon;timestamp;temperature;humidity
43808;DHT22;29438;50.664;10.098;2023-06-14T00:02:06;11.30;71.50
43808;DHT22;29438;50.664;10.098;2023-06-14T00:04:34;11.30;71.60
43808;DHT22;29438;50.664;10.098;2023-06-14T00:07:00;11.30;72.10
43808;DHT22;29438;50.664;10.098;2023-06-14T00:09:25;11.20;72.10
43808;DHT22;29438;50.664;10.098;2023-06-14T00:11:51;11.10;72.60
43808;DHT22;29438;50.664;10.098;2023-06-14T00:14:16;11.10;73.00
43808;DHT22;29438;50.664;10.098;2023-06-14T00:16:42;11.10;72.90
43808;DHT22;29438;50.664;10.098;2023-06-14T00:19:08;11.00;73.30
43808;DHT22;29438;50.664;10.098;2023-06-14T00:21:36;11.00;73.50
43808;DHT22;29438;50.664;10.098;2023-06-14T00:24:01;11.00;73.60
43808;DHT22;29438;50.664;10.098;2023-06-14T00:26:27;10.90;73.60
43808;DHT22;29438;50.664;10.098;2023-06-14T00:28:54;10.80;73.50
43808;DHT22;29438;50.664;10.098;2023-06-14T00:31:20;10.70;73.70
43808;DHT22;29438;50.664;10.098;2023-06-14T00:33:45;10.80;73.60
43808;DHT22;29438;50.664;10.098;2023-06-14T00:36:11;10.90;73.50
43808;DHT22;29438;50.664;10.098;2023-06-14T00:38:36;11.00;73.20
43808;DHT22;29438;50.664;10.098;2023-06-14T00:41:02;10.90;73.10
43808;DHT22;29438;50.664;10.098;2023-06-14T00:43:27;10.80;73.40
43808;DHT22;29438;50.664;10.098;2023-06-14T00:45:53;10.80;73.50
43808;DHT22;29438;50.664;10.098;2023-06-14T00:48:19;10.90;73.50
43808;DHT22;29438;50.664;10.098;2023-06-14T00:50:45;10.90;73.10
43808;DHT22;29438;50.664;10.098;2023-06-14T00:53:14;10.90;73.30
43808;DHT22;29438;50.664;10.098;2023-06-14T00:55:40;10.80;73.40
43808;DHT22;29438;50.664;10.098;2023-06-14T00:58:06;10.80;73.60
43808;DHT22;29438;50.664;10.098;2023-06-14T01:00:33;10.80;73.50
43808;DHT22;29438;50.664;10.098;2023-06-14T01:02:58;10.70;73.60
43808;DHT22;29438;50.664;10.098;2023-06-14T01:05:24;10.70;74.40
43808;DHT22;29438;50.664;10.098;2023-06-14T01:08:10;10.70;74.20
43808;DHT22;29438;50.664;10.098;2023-06-14T01:10:59;10.60;74.70
43808;DHT22;29438;50.664;10.098;2023-06-14T01:13:32;10.50;74.90
43808;DHT22;29438;50.664;10.098;2023-06-14T01:15:59;10.50;75.00
43808;DHT22;29438;50.664;10.098;2023-06-14T01:18:24;10.30;74.80
43808;DHT22;29438;50.664;10.098;2023-06-14T01:20:51;10.30;75.60
43808;DHT22;29438;50.664;10.098;2023-06-14T01:23:21;10.30;75.90
43808;DHT22;29438;50.664;10.098;2023-06-14T01:25:48;10.20;76.10
43808;DHT22;29438;50.664;10.098;2023-06-14T01:28:18;10.10;76.40
43808;DHT22;29438;50.664;10.098;2023-06-14T01:30:46;9.90;76.50
43808;DHT22;29438;50.664;10.098;2023-06-14T01:33:20;9.90;77.10
43808;DHT22;29438;50.664;10.098;2023-06-14T01:35:49;9.90;77.20
43808;DHT22;29438;50.664;10.098;2023-06-14T01:38:15;9.90;77.10
43808;DHT22;29438;50.664;10.098;2023-06-14T01:40:45;9.90;77.30
43808;DHT22;29438;50.664;10.098;2023-06-14T01:43:16;9.90;77.30
43808;DHT22;29438;50.664;10.098;2023-06-14T01:45:42;9.90;77.40
43808;DHT22;29438;50.664;10.098;2023-06-14T01:48:08;9.80;77.40
43808;DHT22;29438;50.664;10.098;2023-06-14T01:50:34;9.70;77.40
43808;DHT22;29438;50.664;10.098;2023-06-14T01:53:00;9.70;77.70
43808;DHT22;29438;50.664;10.098;2023-06-14T01:55:26;9.70;77.90
43808;DHT22;29438;50.664;10.098;2023-06-14T01:57:52;9.70;78.10
43808;DHT22;29438;50.664;10.098;2023-06-14T02:00:17;9.70;78.30
43808;DHT22;29438;50.664;10.098;2023-06-14T02:02:43;9.60;78.40
43808;DHT22;29438;50.664;10.098;2023-06-14T02:05:09;9.60;78.40
43808;DHT22;29438;50.664;10.098;2023-06-14T02:07:36;9.50;78.50
43808;DHT22;29438;50.664;10.098;2023-06-14T02:10:02;9.50;78.40
43808;DHT22;29438;50.664;10.098;2023-06-14T02:12:28;9.50;78.60
43808;DHT22;29438;50.664;10.098;2023-06-14T02:14:53;9.50;78.70
43808;DHT22;29438;50.664;10.098;2023-06-14T02:17:19;9.50;78.90
43808;DHT22;29438;50.664;10.098;2023-06-14T02:19:45;9.30;79.10
43808;DHT22;29438;50.664;10.098;2023-06-14T02:22:11;9.30;79.10
43808;DHT22;29438;50.664;10.098;2023-06-14T02:24:37;9.20;79.50
43808;DHT22;29438;50.664;10.098;2023-06-14T02:27:02;9.20;80.00
43808;DHT22;29438;50.664;10.098;2023-06-14T02:29:28;9.20;79.80
43808;DHT22;29438;50.664;10.098;2023-06-14T02:31:54;9.30;79.80
43808;DHT22;29438;50.664;10.098;2023-06-14T02:34:20;9.30;79.90
43808;DHT22;29438;50.664;10.098;2023-06-14T02:36:47;9.20;79.70
43808;DHT22;29438;50.664;10.098;2023-06-14T02:39:13;9.10;79.90
43808;DHT22;29438;50.664;10.098;2023-06-14T02:41:39;9.00;79.90
43808;DHT22;29438;50.664;10.098;2023-06-14T02:44:05;9.00;80.10
43808;DHT22;29438;50.664;10.098;2023-06-14T02:46:31;8.90;80.10
43808;DHT22;29438;50.664;10.098;2023-06-14T02:48:56;8.90;80.90
43808;DHT22;29438;50.664;10.098;2023-06-14T02:51:22;9.00;80.90
43808;DHT22;29438;50.664;10.098;2023-06-14T02:53:47;8.90;80.70
43808;DHT22;29438;50.664;10.098;2023-06-14T02:56:13;8.80;80.90
43808;DHT22;29438;50.664;10.098;2023-06-14T02:58:38;8.80;80.80
43808;DHT22;29438;50.664;10.098;2023-06-14T03:01:05;8.80;80.90
43808;DHT22;29438;50.664;10.098;2023-06-14T03:03:33;8.70;80.90
43808;DHT22;29438;50.664;10.098;2023-06-14T03:05:58;8.80;81.20
43808;DHT22;29438;50.664;10.098;2023-06-14T03:08:30;8.90;81.20
43808;DHT22;29438;50.664;10.098;2023-06-14T03:10:57;9.00;81.10
43808;DHT22;29438;50.664;10.098;2023-06-14T03:13:23;9.00;80.90
43808;DHT22;29438;50.664;10.098;2023-06-14T03:15:49;9.00;80.80
43808;DHT22;29438;50.664;10.098;2023-06-14T03:18:16;9.10;80.90
43808;DHT22;29438;50.664;10.098;2023-06-14T03:20:42;9.10;80.60
43808;DHT22;29438;50.664;10.098;2023-06-14T03:23:08;9.10;80.60
43808;DHT22;29438;50.664;10.098;2023-06-14T03:25:34;9.20;80.40
43808;DHT22;29438;50.664;10.098;2023-06-14T03:28:01;9.20;80.40
43808;DHT22;29438;50.664;10.098;2023-06-14T03:30:27;9.20;80.50
43808;DHT22;29438;50.664;10.098;2023-06-14T03:32:53;9.40;80.10
43808;DHT22;29438;50.664;10.098;2023-06-14T03:35:21;9.30;79.90
43808;DHT22;29438;50.664;10.098;2023-06-14T03:37:46;9.40;79.90
43808;DHT22;29438;50.664;10.098;2023-06-14T03:40:14;9.60;79.90
43808;DHT22;29438;50.664;10.098;2023-06-14T03:42:40;9.70;79.90
43808;DHT22;29438;50.664;10.098;2023-06-14T03:45:06;9.80;79.90
43808;DHT22;29438;50.664;10.098;2023-06-14T03:47:32;10.00;79.60
43808;DHT22;29438;50.664;10.098;2023-06-14T03:49:57;10.30;78.40
43808;DHT22;29438;50.664;10.098;2023-06-14T03:52:23;10.50;77.80
43808;DHT22;29438;50.664;10.098;2023-06-14T03:54:49;10.60;77.70
43808;DHT22;29438;50.664;10.098;2023-06-14T03:57:15;10.70;77.50
43808;DHT22;29438;50.664;10.098;2023-06-14T03:59:40;10.90;77.20
43808;DHT22;29438;50.664;10.098;2023-06-14T04:02:07;11.10;76.50
43808;DHT22;29438;50.664;10.098;2023-06-14T04:04:32;11.30;76.00
43808;DHT22;29438;50.664;10.098;2023-06-14T04:06:58;11.50;75.50
43808;DHT22;29438;50.664;10.098;2023-06-14T04:09:26;12.50;73.10
43808;DHT22;29438;50.664;10.098;2023-06-14T04:11:52;12.80;70.00
43808;DHT22;29438;50.664;10.098;2023-06-14T04:14:19;12.60;70.80
43808;DHT22;29438;50.664;10.098;2023-06-14T04:16:46;12.40;72.20
43808;DHT22;29438;50.664;10.098;2023-06-14T04:19:11;13.20;69.90
43808;DHT22;29438;50.664;10.098;2023-06-14T04:21:37;13.20;69.30
43808;DHT22;29438;50.664;10.098;2023-06-14T04:24:03;13.00;69.90
43808;DHT22;29438;50.664;10.098;2023-06-14T04:26:28;12.70;70.50
43808;DHT22;29438;50.664;10.098;2023-06-14T04:28:55;12.70;72.00
43808;DHT22;29438;50.664;10.098;2023-06-14T04:31:22;14.40;68.40
43808;DHT22;29438;50.664;10.098;2023-06-14T04:33:50;17.80;57.00
43808;DHT22;29438;50.664;10.098;2023-06-14T04:36:18;19.60;50.90
43808;DHT22;29438;50.664;10.098;2023-06-14T04:38:44;20.00;48.70
43808;DHT22;29438;50.664;10.098;2023-06-14T04:41:11;22.00;45.70
43808;DHT22;29438;50.664;10.098;2023-06-14T04:43:37;22.80;42.50
43808;DHT22;29438;50.664;10.098;2023-06-14T04:46:06;23.10;42.00
43808;DHT22;29438;50.664;10.098;2023-06-14T04:48:39;22.60;42.10
43808;DHT22;29438;50.664;10.098;2023-06-14T04:51:07;23.30;41.40
43808;DHT22;29438;50.664;10.098;2023-06-14T04:53:32;24.40;38.30
43808;DHT22;29438;50.664;10.098;2023-06-14T04:55:59;24.20;38.80
43808;DHT22;29438;50.664;10.098;2023-06-14T04:58:26;24.20;39.00
43808;DHT22;29438;50.664;10.098;2023-06-14T05:00:52;25.60;36.30
43808;DHT22;29438;50.664;10.098;2023-06-14T05:03:18;25.20;36.30
43808;DHT22;29438;50.664;10.098;2023-06-14T05:05:46;24.30;38.10
43808;DHT22;29438;50.664;10.098;2023-06-14T05:08:12;23.70;39.10
43808;DHT22;29438;50.664;10.098;2023-06-14T05:10:37;25.90;36.40
43808;DHT22;29438;50.664;10.098;2023-06-14T05:13:03;27.60;33.40
43808;DHT22;29438;50.664;10.098;2023-06-14T05:15:29;27.60;32.80
43808;DHT22;29438;50.664;10.098;2023-06-14T05:17:55;28.40;32.00
43808;DHT22;29438;50.664;10.098;2023-06-14T05:20:22;27.10;33.90
43808;DHT22;29438;50.664;10.098;2023-06-14T05:22:50;27.10;34.10
43808;DHT22;29438;50.664;10.098;2023-06-14T05:25:17;26.80;33.90
43808;DHT22;29438;50.664;10.098;2023-06-14T05:27:43;26.80;34.40
43808;DHT22;29438;50.664;10.098;2023-06-14T05:30:09;27.10;33.90
43808;DHT22;29438;50.664;10.098;2023-06-14T05:32:34;26.90;33.70
43808;DHT22;29438;50.664;10.098;2023-06-14T05:35:00;25.10;36.50
43808;DHT22;29438;50.664;10.098;2023-06-14T05:37:25;24.40;38.20
43808;DHT22;29438;50.664;10.098;2023-06-14T05:39:51;25.20;37.30
43808;DHT22;29438;50.664;10.098;2023-06-14T05:42:16;26.20;35.60
43808;DHT22;29438;50.664;10.098;2023-06-14T05:44:42;27.30;34.20
43808;DHT22;29438;50.664;10.098;2023-06-14T05:47:07;27.30;33.60
43808;DHT22;29438;50.664;10.098;2023-06-14T05:49:33;26.10;35.00
43808;DHT22;29438;50.664;10.098;2023-06-14T05:51:58;25.40;37.60
43808;DHT22;29438;50.664;10.098;2023-06-14T05:54:24;26.50;35.80
43808;DHT22;29438;50.664;10.098;2023-06-14T05:56:49;26.50;35.20
43808;DHT22;29438;50.664;10.098;2023-06-14T05:59:14;25.80;35.30
43808;DHT22;29438;50.664;10.098;2023-06-14T06:01:40;25.00;36.80
43808;DHT22;29438;50.664;10.098;2023-06-14T06:04:07;25.10;36.70
43808;DHT22;29438;50.664;10.098;2023-06-14T06:06:32;24.30;38.40
43808;DHT22;29438;50.664;10.098;2023-06-14T06:08:58;25.20;36.90
43808;DHT22;29438;50.664;10.098;2023-06-14T06:11:24;24.10;38.50
43808;DHT22;29438;50.664;10.098;2023-06-14T06:13:49;23.80;39.50
43808;DHT22;29438;50.664;10.098;2023-06-14T06:16:15;24.30;38.40
43808;DHT22;29438;50.664;10.098;2023-06-14T06:18:41;25.00;37.50
43808;DHT22;29438;50.664;10.098;2023-06-14T06:21:06;24.20;38.10
43808;DHT22;29438;50.664;10.098;2023-06-14T06:23:32;23.50;39.40
43808;DHT22;29438;50.664;10.098;2023-06-14T06:25:58;21.90;42.70
43808;DHT22;29438;50.664;10.098;2023-06-14T06:28:23;23.00;39.90
43808;DHT22;29438;50.664;10.098;2023-06-14T06:30:49;23.20;39.40
43808;DHT22;29438;50.664;10.098;2023-06-14T06:33:15;23.90;40.20
43808;DHT22;29438;50.664;10.098;2023-06-14T06:35:41;24.50;38.00
43808;DHT22;29438;50.664;10.098;2023-06-14T06:38:07;23.80;39.60
43808;DHT22;29438;50.664;10.098;2023-06-14T06:40:34;23.00;39.80
43808;DHT22;29438;50.664;10.098;2023-06-14T06:42:59;23.30;40.30
43808;DHT22;29438;50.664;10.098;2023-06-14T06:45:25;23.20;40.70
43808;DHT22;29438;50.664;10.098;2023-06-14T06:47:51;22.80;40.00
43808;DHT22;29438;50.664;10.098;2023-06-14T06:50:17;22.70;40.00
43808;DHT22;29438;50.664;10.098;2023-06-14T06:52:43;22.80;40.40
43808;DHT22;29438;50.664;10.098;2023-06-14T06:55:10;23.70;39.30
43808;DHT22;29438;50.664;10.098;2023-06-14T06:57:36;23.10;39.90
43808;DHT22;29438;50.664;10.098;2023-06-14T07:00:02;23.80;39.30
43808;DHT22;29438;50.664;10.098;2023-06-14T07:02:31;25.00;36.40
43808;DHT22;29438;50.664;10.098;2023-06-14T07:04:56;24.30;37.90
43808;DHT22;29438;50.664;10.098;2023-06-14T07:07:22;23.40;39.40
43808;DHT22;29438;50.664;10.098;2023-06-14T07:09:47;23.90;38.70
43808;DHT22;29438;50.664;10.098;2023-06-14T07:12:13;24.20;38.00
43808;DHT22;29438;50.664;10.098;2023-06-14T07:14:38;23.50;39.80
43808;DHT22;29438;50.664;10.098;2023-06-14T07:17:04;24.00;38.30
43808;DHT22;29438;50.664;10.098;2023-06-14T07:19:30;24.50;37.70
43808;DHT22;29438;50.664;10.098;2023-06-14T07:21:55;23.70;38.60
43808;DHT22;29438;50.664;10.098;2023-06-14T07:24:21;23.40;39.80
43808;DHT22;29438;50.664;10.098;2023-06-14T07:26:46;23.90;40.30
43808;DHT22;29438;50.664;10.098;2023-06-14T07:29:13;23.60;39.00
43808;DHT22;29438;50.664;10.098;2023-06-14T07:31:39;24.10;38.30
43808;DHT22;29438;50.664;10.098;2023-06-14T07:34:05;20.40;44.40
43808;DHT22;29438;50.664;10.098;2023-06-14T07:36:30;18.60;49.60
43808;DHT22;29438;50.664;10.098;2023-06-14T07:38:56;20.40;46.70
43808;DHT22;29438;50.664;10.098;2023-06-14T07:41:21;21.60;43.70
43808;DHT22;29438;50.664;10.098;2023-06-14T07:43:47;21.50;43.50
43808;DHT22;29438;50.664;10.098;2023-06-14T07:46:12;22.30;41.60
43808;DHT22;29438;50.664;10.098;2023-06-14T07:48:38;22.80;40.90
43808;DHT22;29438;50.664;10.098;2023-06-14T07:51:03;24.00;38.00
43808;DHT22;29438;50.664;10.098;2023-06-14T07:53:29;22.90;39.90
43808;DHT22;29438;50.664;10.098;2023-06-14T07:55:56;23.20;39.50
43808;DHT22;29438;50.664;10.098;2023-06-14T07:58:21;23.70;39.00
43808;DHT22;29438;50.664;10.098;2023-06-14T08:00:47;22.70;40.20
43808;DHT22;29438;50.664;10.098;2023-06-14T08:03:12;23.00;39.70
43808;DHT22;29438;50.664;10.098;2023-06-14T08:05:38;21.40;42.70
43808;DHT22;29438;50.664;10.098;2023-06-14T08:08:04;20.50;44.10
43808;DHT22;29438;50.664;10.098;2023-06-14T08:10:29;20.30;45.30
43808;DHT22;29438;50.664;10.098;2023-06-14T08:12:55;20.20;46.50
43808;DHT22;29438;50.664;10.098;2023-06-14T08:15:20;22.70;41.20
43808;DHT22;29438;50.664;10.098;2023-06-14T08:17:46;23.70;38.50
43808;DHT22;29438;50.664;10.098;2023-06-14T08:20:12;21.80;42.00
43808;DHT22;29438;50.664;10.098;2023-06-14T08:22:39;22.10;41.80
43808;DHT22;29438;50.664;10.098;2023-06-14T08:25:07;24.00;38.20
43808;DHT22;29438;50.664;10.098;2023-06-14T08:27:33;24.70;36.60
43808;DHT22;29438;50.664;10.098;2023-06-14T08:29:58;25.70;34.70
43808;DHT22;29438;50.664;10.098;2023-06-14T08:32:24;25.20;36.70
43808;DHT22;29438;50.664;10.098;2023-06-14T08:34:51;23.30;38.10
43808;DHT22;29438;50.664;10.098;2023-06-14T08:37:16;20.80;43.50
43808;DHT22;29438;50.664;10.098;2023-06-14T08:39:42;20.80;44.50
43808;DHT22;29438;50.664;10.098;2023-06-14T08:42:09;22.10;41.70
43808;DHT22;29438;50.664;10.098;2023-06-14T08:44:36;22.30;42.00
43808;DHT22;29438;50.664;10.098;2023-06-14T08:47:01;22.30;41.70
43808;DHT22;29438;50.664;10.098;2023-06-14T08:49:29;23.20;39.50
43808;DHT22;29438;50.664;10.098;2023-06-14T08:52:00;22.70;40.30
43808;DHT22;29438;50.664;10.098;2023-06-14T08:54:29;23.30;39.80
43808;DHT22;29438;50.664;10.098;2023-06-14T08:56:57;23.60;40.00
43808;DHT22;29438;50.664;10.098;2023-06-14T08:59:25;21.90;41.70
43808;DHT22;29438;50.664;10.098;2023-06-14T09:01:52;21.10;43.70
43808;DHT22;29438;50.664;10.098;2023-06-14T09:04:18;20.30;44.80
43808;DHT22;29438;50.664;10.098;2023-06-14T09:06:45;20.20;45.80
43808;DHT22;29438;50.664;10.098;2023-06-14T09:09:11;20.00;46.70
43808;DHT22;29438;50.664;10.098;2023-06-14T09:11:50;19.70;47.60
43808;DHT22;29438;50.664;10.098;2023-06-14T09:14:17;18.70;51.30
43808;DHT22;29438;50.664;10.098;2023-06-14T09:16:43;18.60;51.10
43808;DHT22;29438;50.664;10.098;2023-06-14T09:19:08;18.80;50.90
43808;DHT22;29438;50.664;10.098;2023-06-14T09:21:40;18.50;51.10
43808;DHT22;29438;50.664;10.098;2023-06-14T09:24:06;18.90;50.70
43808;DHT22;29438;50.664;10.098;2023-06-14T09:26:31;20.40;47.00
43808;DHT22;29438;50.664;10.098;2023-06-14T09:29:26;21.10;45.60
43808;DHT22;29438;50.664;10.098;2023-06-14T09:31:49;21.10;45.00
43808;DHT22;29438;50.664;10.098;2023-06-14T09:34:16;21.40;45.10
43808;DHT22;29438;50.664;10.098;2023-06-14T09:36:43;20.70;45.20
43808;DHT22;29438;50.664;10.098;2023-06-14T09:39:08;19.50;47.60
43808;DHT22;29438;50.664;10.098;2023-06-14T09:41:36;20.20;46.80
43808;DHT22;29438;50.664;10.098;2023-06-14T09:44:03;20.30;46.70
43808;DHT22;29438;50.664;10.098;2023-06-14T09:46:30;20.80;44.80
43808;DHT22;29438;50.664;10.098;2023-06-14T09:48:56;21.90;43.60
43808;DHT22;29438;50.664;10.098;2023-06-14T09:51:23;22.50;42.40
43808;DHT22;29438;50.664;10.098;2023-06-14T09:53:49;22.10;43.40
43808;DHT22;29438;50.664;10.098;2023-06-14T09:56:41;22.10;43.20
43808;DHT22;29438;50.664;10.098;2023-06-14T09:59:09;21.10;45.00
43808;DHT22;29438;50.664;10.098;2023-06-14T10:01:38;21.90;44.60
43808;DHT22;29438;50.664;10.098;2023-06-14T10:04:07;22.00;43.70
43808;DHT22;29438;50.664;10.098;2023-06-14T10:06:36;22.10;42.90
43808;DHT22;29438;50.664;10.098;2023-06-14T10:09:04;21.50;43.50
43808;DHT22;29438;50.664;10.098;2023-06-14T10:11:31;20.90;46.10
43808;DHT22;29438;50.664;10.098;2023-06-14T10:13:57;20.80;45.70
43808;DHT22;29438;50.664;10.098;2023-06-14T10:16:31;21.00;44.00
43808;DHT22;29438;50.664;10.098;2023-06-14T10:19:19;21.10;44.50
43808;DHT22;29438;50.664;10.098;2023-06-14T10:22:08;20.80;45.60
43808;DHT22;29438;50.664;10.098;2023-06-14T10:24:45;20.60;44.70
43808;DHT22;29438;50.664;10.098;2023-06-14T10:27:14;20.60;45.00
43808;DHT22;29438;50.664;10.098;2023-06-14T10:32:21;22.20;42.80
43808;DHT22;29438;50.664;10.098;2023-06-14T10:37:27;21.40;42.10
43808;DHT22;29438;50.664;10.098;2023-06-14T10:39:53;21.50;42.50
43808;DHT22;29438;50.664;10.098;2023-06-14T10:42:19;22.90;41.00
43808;DHT22;29438;50.664;10.098;2023-06-14T10:44:47;22.20;42.40
43808;DHT22;29438;50.664;10.098;2023-06-14T10:47:25;20.60;44.90
43808;DHT22;29438;50.664;10.098;2023-06-14T10:50:10;20.40;45.90
43808;DHT22;29438;50.664;10.098;2023-06-14T10:52:41;20.10;45.90
43808;DHT22;29438;50.664;10.098;2023-06-14T10:55:14;20.70;46.50
43808;DHT22;29438;50.664;10.098;2023-06-14T10:57:53;21.40;45.60
43808;DHT22;29438;50.664;10.098;2023-06-14T11:00:23;22.40;42.50
43808;DHT22;29438;50.664;10.098;2023-06-14T11:03:18;21.70;43.90
43808;DHT22;29438;50.664;10.098;2023-06-14T11:05:57;21.60;43.00
43808;DHT22;29438;50.664;10.098;2023-06-14T11:08:39;21.90;42.30
43808;DHT22;29438;50.664;10.098;2023-06-14T11:11:07;21.80;42.30
43808;DHT22;29438;50.664;10.098;2023-06-14T11:13:33;21.70;41.40
43808;DHT22;29438;50.664;10.098;2023-06-14T11:16:00;21.80;41.70
43808;DHT22;29438;50.664;10.098;2023-06-14T11:18:25;21.70;41.70
43808;DHT22;29438;50.664;10.098;2023-06-14T11:20:53;21.70;43.10
43808;DHT22;29438;50.664;10.098;2023-06-14T11:23:18;20.90;44.70
43808;DHT22;29438;50.664;10.098;2023-06-14T11:25:52;21.00;44.80
43808;DHT22;29438;50.664;10.098;2023-06-14T11:28:17;21.10;43.80
43808;DHT22;29438;50.664;10.098;2023-06-14T11:30:45;21.50;43.60
43808;DHT22;29438;50.664;10.098;2023-06-14T11:33:15;22.60;42.30
43808;DHT22;29438;50.664;10.098;2023-06-14T11:35:42;22.70;38.80
43808;DHT22;29438;50.664;10.098;2023-06-14T11:38:09;22.80;39.60
43808;DHT22;29438;50.664;10.098;2023-06-14T11:40:37;23.10;39.90
43808;DHT22;29438;50.664;10.098;2023-06-14T11:43:03;22.70;39.20
43808;DHT22;29438;50.664;10.098;2023-06-14T11:45:30;21.60;40.50
43808;DHT22;29438;50.664;10.098;2023-06-14T11:47:57;21.20;42.80
43808;DHT22;29438;50.664;10.098;2023-06-14T11:50:23;22.10;40.90
43808;DHT22;29438;50.664;10.098;2023-06-14T11:52:59;22.70;40.40
43808;DHT22;29438;50.664;10.098;2023-06-14T11:55:38;22.10;41.50
43808;DHT22;29438;50.664;10.098;2023-06-14T11:58:06;21.40;41.70
43808;DHT22;29438;50.664;10.098;2023-06-14T12:00:31;21.00;41.50
43808;DHT22;29438;50.664;10.098;2023-06-14T12:02:57;21.40;42.10
43808;DHT22;29438;50.664;10.098;2023-06-14T12:05:24;21.90;41.00
43808;DHT22;29438;50.664;10.098;2023-06-14T12:07:50;21.70;41.90
43808;DHT22;29438;50.664;10.098;2023-06-14T12:10:18;21.10;42.90
43808;DHT22;29438;50.664;10.098;2023-06-14T12:12:44;20.90;43.60
43808;DHT22;29438;50.664;10.098;2023-06-14T12:15:10;21.10;42.90
43808;DHT22;29438;50.664;10.098;2023-06-14T12:17:38;20.90;43.10
43808;DHT22;29438;50.664;10.098;2023-06-14T12:20:11;20.70;42.60
43808;DHT22;29438;50.664;10.098;2023-06-14T12:22:46;21.60;41.70
43808;DHT22;29438;50.664;10.098;2023-06-14T12:25:26;21.50;41.00
43808;DHT22;29438;50.664;10.098;2023-06-14T12:27:55;21.20;43.40
43808;DHT22;29438;50.664;10.098;2023-06-14T12:30:21;21.40;42.00
43808;DHT22;29438;50.664;10.098;2023-06-14T12:32:47;21.70;41.90
43808;DHT22;29438;50.664;10.098;2023-06-14T12:35:12;21.20;41.50
43808;DHT22;29438;50.664;10.098;2023-06-14T12:37:38;21.20;42.20
43808;DHT22;29438;50.664;10.098;2023-06-14T12:40:04;21.20;41.10
43808;DHT22;29438;50.664;10.098;2023-06-14T12:42:31;21.10;41.50
43808;DHT22;29438;50.664;10.098;2023-06-14T12:44:57;21.70;42.20
43808;DHT22;29438;50.664;10.098;2023-06-14T12:47:22;21.70;40.80
43808;DHT22;29438;50.664;10.098;2023-06-14T12:49:48;21.30;40.90
43808;DHT22;29438;50.664;10.098;2023-06-14T12:52:13;22.30;38.80
43808;DHT22;29438;50.664;10.098;2023-06-14T12:54:39;22.40;39.30
43808;DHT22;29438;50.664;10.098;2023-06-14T12:57:05;22.10;39.00
43808;DHT22;29438;50.664;10.098;2023-06-14T12:59:31;21.60;40.50
43808;DHT22;29438;50.664;10.098;2023-06-14T13:02:03;21.10;41.00
43808;DHT22;29438;50.664;10.098;2023-06-14T13:04:35;21.70;41.40
43808;DHT22;29438;50.664;10.098;2023-06-14T13:07:00;22.10;39.70
43808;DHT22;29438;50.664;10.098;2023-06-14T13:09:26;21.40;41.00
43808;DHT22;29438;50.664;10.098;2023-06-14T13:11:52;21.00;41.30
43808;DHT22;29438;50.664;10.098;2023-06-14T13:14:17;21.20;42.50
43808;DHT22;29438;50.664;10.098;2023-06-14T13:16:43;21.60;41.70
43808;DHT22;29438;50.664;10.098;2023-06-14T13:19:09;22.20;40.00
43808;DHT22;29438;50.664;10.098;2023-06-14T13:21:34;22.40;39.10
43808;DHT22;29438;50.664;10.098;2023-06-14T13:24:00;22.20;38.00
43808;DHT22;29438;50.664;10.098;2023-06-14T13:26:26;22.10;39.60
43808;DHT22;29438;50.664;10.098;2023-06-14T13:28:52;22.60;39.40
43808;DHT22;29438;50.664;10.098;2023-06-14T13:31:17;22.60;38.50
43808;DHT22;29438;50.664;10.098;2023-06-14T13:33:43;22.00;39.90
43808;DHT22;29438;50.664;10.098;2023-06-14T13:36:08;21.80;39.90
43808;DHT22;29438;50.664;10.098;2023-06-14T13:38:34;21.60;39.50
43808;DHT22;29438;50.664;10.098;2023-06-14T13:40:59;21.70;40.90
43808;DHT22;29438;50.664;10.098;2023-06-14T13:43:25;22.20;38.70
43808;DHT22;29438;50.664;10.098;2023-06-14T13:45:50;22.10;38.90
43808;DHT22;29438;50.664;10.098;2023-06-14T13:48:16;22.50;39.20
43808;DHT22;29438;50.664;10.098;2023-06-14T13:50:42;22.90;37.50
43808;DHT22;29438;50.664;10.098;2023-06-14T13:53:07;21.90;38.90
43808;DHT22;29438;50.664;10.098;2023-06-14T13:55:33;21.10;40.50
43808;DHT22;29438;50.664;10.098;2023-06-14T13:57:58;20.80;40.90
43808;DHT22;29438;50.664;10.098;2023-06-14T14:00:24;20.40;41.30
43808;DHT22;29438;50.664;10.098;2023-06-14T14:02:50;20.30;41.50
43808;DHT22;29438;50.664;10.098;2023-06-14T14:05:16;20.40;41.80
43808;DHT22;29438;50.664;10.098;2023-06-14T14:07:41;20.90;42.20
43808;DHT22;29438;50.664;10.098;2023-06-14T14:10:07;21.30;40.20
43808;DHT22;29438;50.664;10.098;2023-06-14T14:12:33;21.40;39.70
43808;DHT22;29438;50.664;10.098;2023-06-14T14:14:59;21.40;40.20
43808;DHT22;29438;50.664;10.098;2023-06-14T14:17:25;21.60;39.70
43808;DHT22;29438;50.664;10.098;2023-06-14T14:19:50;21.70;39.50
43808;DHT22;29438;50.664;10.098;2023-06-14T14:22:16;21.70;39.00
43808;DHT22;29438;50.664;10.098;2023-06-14T14:24:41;21.50;38.90
43808;DHT22;29438;50.664;10.098;2023-06-14T14:27:07;21.40;39.40
43808;DHT22;29438;50.664;10.098;2023-06-14T14:29:33;21.50;39.10
43808;DHT22;29438;50.664;10.098;2023-06-14T14:31:58;21.40;39.10
43808;DHT22;29438;50.664;10.098;2023-06-14T14:34:24;21.70;38.40
43808;DHT22;29438;50.664;10.098;2023-06-14T14:36:50;21.70;40.20
43808;DHT22;29438;50.664;10.098;2023-06-14T14:39:16;22.00;38.80
43808;DHT22;29438;50.664;10.098;2023-06-14T14:41:41;22.00;39.30
43808;DHT22;29438;50.664;10.098;2023-06-14T14:44:07;22.10;37.80
43808;DHT22;29438;50.664;10.098;2023-06-14T14:46:32;21.90;38.80
43808;DHT22;29438;50.664;10.098;2023-06-14T14:48:59;21.60;39.80
43808;DHT22;29438;50.664;10.098;2023-06-14T14:51:25;21.60;38.60
43808;DHT22;29438;50.664;10.098;2023-06-14T14:53:50;21.70;39.70
43808;DHT22;29438;50.664;10.098;2023-06-14T14:56:16;21.60;38.90
43808;DHT22;29438;50.664;10.098;2023-06-14T14:58:42;21.40;40.70
43808;DHT22;29438;50.664;10.098;2023-06-14T15:01:08;21.50;38.10
43808;DHT22;29438;50.664;10.098;2023-06-14T15:03:33;21.20;38.70
43808;DHT22;29438;50.664;10.098;2023-06-14T15:05:59;21.10;40.70
43808;DHT22;29438;50.664;10.098;2023-06-14T15:08:24;21.20;41.00
43808;DHT22;29438;50.664;10.098;2023-06-14T15:10:50;21.20;41.50
43808;DHT22;29438;50.664;10.098;2023-06-14T15:13:16;21.10;38.90
43808;DHT22;29438;50.664;10.098;2023-06-14T15:15:42;21.30;40.10
43808;DHT22;29438;50.664;10.098;2023-06-14T15:18:07;21.20;39.60
43808;DHT22;29438;50.664;10.098;2023-06-14T15:20:34;21.40;40.20
43808;DHT22;29438;50.664;10.098;2023-06-14T15:23:00;21.30;40.40